sensor_id;sensor_type;location;lat;lon;timestamp;temperature;humidity
41447;DHT22;27185;52.040;4.490;2022-09-09T00:00:23;17.90;99.90
41447;DHT22;27185;52.040;4.490;2022-09-09T00:03:18;17.90;99.90
41447;DHT22;27185;52.040;4.490;2022-09-09T00:06:24;17.90;99.90
41447;DHT22;27185;52.040;4.490;2022-09-09T00:09:16;17.90;99.90
41447;DHT22;27185;52.040;4.490;2022-09-09T00:12:11;17.90;99.90
41447;DHT22;27185;52.040;4.490;2022-09-09T00:15:02;17.90;99.90
41447;DHT22;27185;52.040;4.490;2022-09-09T00:18:28;17.90;99.90
41447;DHT22;27185;52.040;4.490;2022-09-09T00:21:18;17.90;99.90
41447;DHT22;27185;52.040;4.490;2022-09-09T00:24:41;17.80;99.90
41447;DHT22;27185;52.040;4.490;2022-09-09T00:27:33;17.80;99.90
41447;DHT22;27185;52.040;4.490;2022-09-09T00:30:29;17.70;99.90
41447;DHT22;27185;52.040;4.490;2022-09-09T00:33:20;17.60;99.90
41447;DHT22;27185;52.040;4.490;2022-09-09T00:36:20;17.60;99.90
41447;DHT22;27185;52.040;4.490;2022-09-09T00:42:23;17.50;99.90
41447;DHT22;27185;52.040;4.490;2022-09-09T00:45:18;17.50;99.90
41447;DHT22;27185;52.040;4.490;2022-09-09T00:48:10;17.40;99.90
41447;DHT22;27185;52.040;4.490;2022-09-09T00:50:57;17.40;99.90
41447;DHT22;27185;52.040;4.490;2022-09-09T01:00:26;17.30;99.90
41447;DHT22;27185;52.040;4.490;2022-09-09T01:03:19;17.30;99.90
41447;DHT22;27185;52.040;4.490;2022-09-09T01:06:25;17.20;99.90
41447;DHT22;27185;52.040;4.490;2022-09-09T01:09:21;17.10;99.90
41447;DHT22;27185;52.040;4.490;2022-09-09T01:12:23;17.10;99.90
41447;DHT22;27185;52.040;4.490;2022-09-09T01:18:06;17.00;99.90
41447;DHT22;27185;52.040;4.490;2022-09-09T01:21:04;17.00;99.90
41447;DHT22;27185;52.040;4.490;2022-09-09T01:27:02;16.90;99.90
41447;DHT22;27185;52.040;4.490;2022-09-09T01:29:49;16.90;99.90
41447;DHT22;27185;52.040;4.490;2022-09-09T01:35:53;16.90;99.90
41447;DHT22;27185;52.040;4.490;2022-09-09T01:38:40;16.90;99.90
41447;DHT22;27185;52.040;4.490;2022-09-09T01:41:26;16.80;99.90
41447;DHT22;27185;52.040;4.490;2022-09-09T01:44:13;16.80;99.90
41447;DHT22;27185;52.040;4.490;2022-09-09T01:46:58;16.80;99.90
41447;DHT22;27185;52.040;4.490;2022-09-09T01:49:44;16.70;99.90
41447;DHT22;27185;52.040;4.490;2022-09-09T01:52:39;16.70;99.90
41447;DHT22;27185;52.040;4.490;2022-09-09T01:55:30;16.70;99.90
41447;DHT22;27185;52.040;4.490;2022-09-09T02:01:50;16.60;99.90
41447;DHT22;27185;52.040;4.490;2022-09-09T02:04:51;16.60;99.90
41447;DHT22;27185;52.040;4.490;2022-09-09T02:07:43;16.60;99.90
41447;DHT22;27185;52.040;4.490;2022-09-09T02:10:40;16.60;99.90
41447;DHT22;27185;52.040;4.490;2022-09-09T02:13:27;16.50;99.90
41447;DHT22;27185;52.040;4.490;2022-09-09T02:16:27;16.50;99.90
41447;DHT22;27185;52.040;4.490;2022-09-09T02:22:00;16.50;99.90
41447;DHT22;27185;52.040;4.490;2022-09-09T02:24:47;16.50;99.90
41447;DHT22;27185;52.040;4.490;2022-09-09T02:27:32;16.40;99.90
41447;DHT22;27185;52.040;4.490;2022-09-09T02:30:19;16.40;99.90
41447;DHT22;27185;52.040;4.490;2022-09-09T02:33:07;16.40;99.90
41447;DHT22;27185;52.040;4.490;2022-09-09T02:35:56;16.40;99.90
41447;DHT22;27185;52.040;4.490;2022-09-09T02:38:47;16.40;99.90
41447;DHT22;27185;52.040;4.490;2022-09-09T02:41:40;16.40;99.90
41447;DHT22;27185;52.040;4.490;2022-09-09T02:44:25;16.40;99.90
41447;DHT22;27185;52.040;4.490;2022-09-09T02:50:12;16.40;99.90
41447;DHT22;27185;52.040;4.490;2022-09-09T02:53:05;16.40;99.90
41447;DHT22;27185;52.040;4.490;2022-09-09T02:56:17;16.40;99.90
41447;DHT22;27185;52.040;4.490;2022-09-09T02:59:04;16.40;99.90
41447;DHT22;27185;52.040;4.490;2022-09-09T03:01:50;16.40;99.90
41447;DHT22;27185;52.040;4.490;2022-09-09T03:04:35;16.40;99.90
41447;DHT22;27185;52.040;4.490;2022-09-09T03:07:21;16.40;99.90
41447;DHT22;27185;52.040;4.490;2022-09-09T03:10:07;16.40;99.90
41447;DHT22;27185;52.040;4.490;2022-09-09T03:12:53;16.50;99.90
41447;DHT22;27185;52.040;4.490;2022-09-09T03:15:38;16.40;99.90
41447;DHT22;27185;52.040;4.490;2022-09-09T03:18:24;16.50;99.90
41447;DHT22;27185;52.040;4.490;2022-09-09T03:21:10;16.50;99.90
41447;DHT22;27185;52.040;4.490;2022-09-09T03:23:56;16.50;99.90
41447;DHT22;27185;52.040;4.490;2022-09-09T03:26:42;16.60;99.90
41447;DHT22;27185;52.040;4.490;2022-09-09T03:29:32;16.60;99.90
41447;DHT22;27185;52.040;4.490;2022-09-09T03:32:18;16.70;99.90
41447;DHT22;27185;52.040;4.490;2022-09-09T03:35:04;16.70;99.90
41447;DHT22;27185;52.040;4.490;2022-09-09T03:37:50;16.80;99.90
41447;DHT22;27185;52.040;4.490;2022-09-09T03:40:35;16.80;99.90
41447;DHT22;27185;52.040;4.490;2022-09-09T03:43:22;16.80;99.90
41447;DHT22;27185;52.040;4.490;2022-09-09T03:46:07;16.80;99.90
41447;DHT22;27185;52.040;4.490;2022-09-09T03:48:53;16.80;99.90
41447;DHT22;27185;52.040;4.490;2022-09-09T03:51:38;16.80;99.90
41447;DHT22;27185;52.040;4.490;2022-09-09T03:54:25;16.80;99.90
41447;DHT22;27185;52.040;4.490;2022-09-09T03:57:10;16.80;99.90
41447;DHT22;27185;52.040;4.490;2022-09-09T03:59:56;16.80;99.90
41447;DHT22;27185;52.040;4.490;2022-09-09T04:02:42;16.80;99.90
41447;DHT22;27185;52.040;4.490;2022-09-09T04:05:28;16.80;99.90
41447;DHT22;27185;52.040;4.490;2022-09-09T04:08:14;16.80;99.90
41447;DHT22;27185;52.040;4.490;2022-09-09T04:11:00;16.80;99.90
41447;DHT22;27185;52.040;4.490;2022-09-09T04:13:47;16.80;99.90
41447;DHT22;27185;52.040;4.490;2022-09-09T04:16:33;16.80;99.90
41447;DHT22;27185;52.040;4.490;2022-09-09T04:19:19;16.80;99.90
41447;DHT22;27185;52.040;4.490;2022-09-09T04:22:05;16.70;99.90
41447;DHT22;27185;52.040;4.490;2022-09-09T04:24:50;16.70;99.90
41447;DHT22;27185;52.040;4.490;2022-09-09T04:27:36;16.80;99.90
41447;DHT22;27185;52.040;4.490;2022-09-09T04:30:22;16.80;99.90
41447;DHT22;27185;52.040;4.490;2022-09-09T04:33:07;16.70;99.90
41447;DHT22;27185;52.040;4.490;2022-09-09T04:35:53;16.70;99.90
41447;DHT22;27185;52.040;4.490;2022-09-09T04:38:39;16.70;99.90
41447;DHT22;27185;52.040;4.490;2022-09-09T04:41:24;16.70;99.90
41447;DHT22;27185;52.040;4.490;2022-09-09T04:44:10;16.70;99.90
41447;DHT22;27185;52.040;4.490;2022-09-09T04:46:55;16.70;99.90
41447;DHT22;27185;52.040;4.490;2022-09-09T04:49:41;16.70;99.90
41447;DHT22;27185;52.040;4.490;2022-09-09T04:52:26;16.70;99.90
41447;DHT22;27185;52.040;4.490;2022-09-09T04:55:13;16.70;99.90
41447;DHT22;27185;52.040;4.490;2022-09-09T04:58:06;16.70;99.90
41447;DHT22;27185;52.040;4.490;2022-09-09T05:00:52;16.70;99.90
41447;DHT22;27185;52.040;4.490;2022-09-09T05:03:38;16.70;99.90
41447;DHT22;27185;52.040;4.490;2022-09-09T05:06:24;16.60;99.90
41447;DHT22;27185;52.040;4.490;2022-09-09T05:09:09;16.60;99.90
41447;DHT22;27185;52.040;4.490;2022-09-09T05:11:55;16.60;99.90
41447;DHT22;27185;52.040;4.490;2022-09-09T05:14:41;16.60;99.90
41447;DHT22;27185;52.040;4.490;2022-09-09T05:17:26;16.60;99.90
41447;DHT22;27185;52.040;4.490;2022-09-09T05:20:12;16.60;99.90
41447;DHT22;27185;52.040;4.490;2022-09-09T05:22:58;16.50;99.90
41447;DHT22;27185;52.040;4.490;2022-09-09T05:25:52;16.50;99.90
41447;DHT22;27185;52.040;4.490;2022-09-09T05:28:39;16.50;99.90
41447;DHT22;27185;52.040;4.490;2022-09-09T05:31:25;16.50;99.90
41447;DHT22;27185;52.040;4.490;2022-09-09T05:34:13;16.50;99.90
41447;DHT22;27185;52.040;4.490;2022-09-09T05:36:59;16.60;99.90
41447;DHT22;27185;52.040;4.490;2022-09-09T05:39:44;16.60;99.90
41447;DHT22;27185;52.040;4.490;2022-09-09T05:42:30;16.70;99.90
41447;DHT22;27185;52.040;4.490;2022-09-09T05:45:17;16.80;99.90
41447;DHT22;27185;52.040;4.490;2022-09-09T05:48:03;16.80;99.90
41447;DHT22;27185;52.040;4.490;2022-09-09T05:50:53;17.00;99.90
41447;DHT22;27185;52.040;4.490;2022-09-09T05:53:39;17.10;99.90
41447;DHT22;27185;52.040;4.490;2022-09-09T05:56:27;17.20;99.90
41447;DHT22;27185;52.040;4.490;2022-09-09T05:59:13;17.30;99.90
41447;DHT22;27185;52.040;4.490;2022-09-09T06:02:00;17.40;99.90
41447;DHT22;27185;52.040;4.490;2022-09-09T06:04:45;17.50;99.90
41447;DHT22;27185;52.040;4.490;2022-09-09T06:07:31;17.60;99.90
41447;DHT22;27185;52.040;4.490;2022-09-09T06:10:16;17.70;99.90
41447;DHT22;27185;52.040;4.490;2022-09-09T06:13:02;17.70;99.90
41447;DHT22;27185;52.040;4.490;2022-09-09T06:15:51;17.80;99.90
41447;DHT22;27185;52.040;4.490;2022-09-09T06:18:41;17.90;99.90
41447;DHT22;27185;52.040;4.490;2022-09-09T06:21:32;18.00;99.90
41447;DHT22;27185;52.040;4.490;2022-09-09T06:24:18;18.00;99.90
41447;DHT22;27185;52.040;4.490;2022-09-09T06:27:04;18.10;99.90
41447;DHT22;27185;52.040;4.490;2022-09-09T06:29:50;18.20;99.90
41447;DHT22;27185;52.040;4.490;2022-09-09T06:32:36;18.20;99.90
41447;DHT22;27185;52.040;4.490;2022-09-09T06:35:23;18.30;99.90
41447;DHT22;27185;52.040;4.490;2022-09-09T06:38:08;18.40;99.90
41447;DHT22;27185;52.040;4.490;2022-09-09T06:40:55;18.40;99.90
41447;DHT22;27185;52.040;4.490;2022-09-09T06:43:42;18.50;99.90
41447;DHT22;27185;52.040;4.490;2022-09-09T06:46:29;18.50;99.90
41447;DHT22;27185;52.040;4.490;2022-09-09T06:49:16;18.60;99.90
41447;DHT22;27185;52.040;4.490;2022-09-09T06:52:02;18.60;99.90
41447;DHT22;27185;52.040;4.490;2022-09-09T06:54:48;18.60;99.90
41447;DHT22;27185;52.040;4.490;2022-09-09T06:57:33;18.60;99.90
41447;DHT22;27185;52.040;4.490;2022-09-09T07:00:19;18.60;99.90
41447;DHT22;27185;52.040;4.490;2022-09-09T07:03:04;18.60;99.90
41447;DHT22;27185;52.040;4.490;2022-09-09T07:05:55;18.70;99.90
41447;DHT22;27185;52.040;4.490;2022-09-09T07:08:49;18.80;99.90
41447;DHT22;27185;52.040;4.490;2022-09-09T07:11:41;18.80;99.90
41447;DHT22;27185;52.040;4.490;2022-09-09T07:14:27;18.80;99.90
41447;DHT22;27185;52.040;4.490;2022-09-09T07:17:12;18.90;99.90
41447;DHT22;27185;52.040;4.490;2022-09-09T07:19:58;19.00;99.90
41447;DHT22;27185;52.040;4.490;2022-09-09T07:22:43;19.00;99.90
41447;DHT22;27185;52.040;4.490;2022-09-09T07:25:29;19.10;99.90
41447;DHT22;27185;52.040;4.490;2022-09-09T07:28:16;19.10;99.90
41447;DHT22;27185;52.040;4.490;2022-09-09T07:31:03;19.20;99.90
41447;DHT22;27185;52.040;4.490;2022-09-09T07:33:48;19.10;99.90
41447;DHT22;27185;52.040;4.490;2022-09-09T07:36:38;19.10;99.90
41447;DHT22;27185;52.040;4.490;2022-09-09T07:39:24;19.10;99.90
41447;DHT22;27185;52.040;4.490;2022-09-09T07:42:09;19.20;99.90
41447;DHT22;27185;52.040;4.490;2022-09-09T07:44:57;19.10;99.90
41447;DHT22;27185;52.040;4.490;2022-09-09T07:47:42;19.10;99.90
41447;DHT22;27185;52.040;4.490;2022-09-09T07:50:28;19.10;99.90
41447;DHT22;27185;52.040;4.490;2022-09-09T07:53:14;19.10;99.90
41447;DHT22;27185;52.040;4.490;2022-09-09T07:56:08;19.10;99.90
41447;DHT22;27185;52.040;4.490;2022-09-09T07:58:55;19.10;99.90
41447;DHT22;27185;52.040;4.490;2022-09-09T08:01:44;19.10;99.90
41447;DHT22;27185;52.040;4.490;2022-09-09T08:04:30;19.10;99.90
41447;DHT22;27185;52.040;4.490;2022-09-09T08:07:16;19.20;99.90
41447;DHT22;27185;52.040;4.490;2022-09-09T08:10:03;19.20;99.90
41447;DHT22;27185;52.040;4.490;2022-09-09T08:12:48;19.20;99.90
41447;DHT22;27185;52.040;4.490;2022-09-09T08:15:37;19.30;99.90
41447;DHT22;27185;52.040;4.490;2022-09-09T08:18:23;19.30;99.90
41447;DHT22;27185;52.040;4.490;2022-09-09T08:21:15;19.30;99.90
41447;DHT22;27185;52.040;4.490;2022-09-09T08:24:03;19.40;99.90
41447;DHT22;27185;52.040;4.490;2022-09-09T08:26:50;19.40;99.90
41447;DHT22;27185;52.040;4.490;2022-09-09T08:29:36;19.50;99.90
41447;DHT22;27185;52.040;4.490;2022-09-09T08:32:23;19.50;99.90
41447;DHT22;27185;52.040;4.490;2022-09-09T08:35:08;19.50;99.90
41447;DHT22;27185;52.040;4.490;2022-09-09T08:37:54;19.60;99.90
41447;DHT22;27185;52.040;4.490;2022-09-09T08:40:43;19.60;99.90
41447;DHT22;27185;52.040;4.490;2022-09-09T08:43:31;19.60;99.90
41447;DHT22;27185;52.040;4.490;2022-09-09T08:52:22;19.60;99.60
41447;DHT22;27185;52.040;4.490;2022-09-09T08:55:32;19.60;98.70
41447;DHT22;27185;52.040;4.490;2022-09-09T08:58:21;19.60;99.20
41447;DHT22;27185;52.040;4.490;2022-09-09T09:01:32;19.60;99.90
41447;DHT22;27185;52.040;4.490;2022-09-09T09:04:43;19.60;99.50
41447;DHT22;27185;52.040;4.490;2022-09-09T09:13:47;19.60;99.90
41447;DHT22;27185;52.040;4.490;2022-09-09T09:16:58;19.60;99.40
41447;DHT22;27185;52.040;4.490;2022-09-09T09:19:46;19.60;99.70
41447;DHT22;27185;52.040;4.490;2022-09-09T09:22:39;19.60;99.90
41447;DHT22;27185;52.040;4.490;2022-09-09T09:25:35;19.60;99.90
41447;DHT22;27185;52.040;4.490;2022-09-09T09:28:28;19.60;99.90
41447;DHT22;27185;52.040;4.490;2022-09-09T09:31:14;19.60;99.90
41447;DHT22;27185;52.040;4.490;2022-09-09T09:34:00;19.60;99.90
41447;DHT22;27185;52.040;4.490;2022-09-09T09:36:59;19.60;99.90
41447;DHT22;27185;52.040;4.490;2022-09-09T09:39:49;19.70;99.90
41447;DHT22;27185;52.040;4.490;2022-09-09T09:42:35;19.80;99.90
41447;DHT22;27185;52.040;4.490;2022-09-09T09:45:28;19.90;99.90
41447;DHT22;27185;52.040;4.490;2022-09-09T09:48:14;20.10;99.90
41447;DHT22;27185;52.040;4.490;2022-09-09T09:51:06;20.30;99.90
41447;DHT22;27185;52.040;4.490;2022-09-09T09:53:53;20.40;99.90
41447;DHT22;27185;52.040;4.490;2022-09-09T09:56:40;20.50;99.90
41447;DHT22;27185;52.040;4.490;2022-09-09T10:02:25;20.70;99.60
41447;DHT22;27185;52.040;4.490;2022-09-09T10:05:18;20.80;99.40
41447;DHT22;27185;52.040;4.490;2022-09-09T10:08:14;20.90;99.70
41447;DHT22;27185;52.040;4.490;2022-09-09T10:11:30;20.90;99.40
41447;DHT22;27185;52.040;4.490;2022-09-09T10:14:35;21.00;99.10
41447;DHT22;27185;52.040;4.490;2022-09-09T10:20:55;20.80;99.20
41447;DHT22;27185;52.040;4.490;2022-09-09T10:24:12;20.60;99.00
41447;DHT22;27185;52.040;4.490;2022-09-09T10:27:13;20.50;99.40
41447;DHT22;27185;52.040;4.490;2022-09-09T10:36:23;20.10;99.90
41447;DHT22;27185;52.040;4.490;2022-09-09T10:42:14;20.40;99.90
41447;DHT22;27185;52.040;4.490;2022-09-09T10:45:23;20.50;99.90
41447;DHT22;27185;52.040;4.490;2022-09-09T10:48:30;20.70;99.90
41447;DHT22;27185;52.040;4.490;2022-09-09T10:51:33;20.80;99.90
41447;DHT22;27185;52.040;4.490;2022-09-09T10:54:36;20.90;99.90
41447;DHT22;27185;52.040;4.490;2022-09-09T10:57:29;20.90;99.30
41447;DHT22;27185;52.040;4.490;2022-09-09T11:00:20;20.80;99.30
41447;DHT22;27185;52.040;4.490;2022-09-09T11:03:22;20.90;98.80
41447;DHT22;27185;52.040;4.490;2022-09-09T11:06:18;21.00;99.50
41447;DHT22;27185;52.040;4.490;2022-09-09T11:09:05;21.30;99.80
41447;DHT22;27185;52.040;4.490;2022-09-09T11:11:56;21.50;99.50
41447;DHT22;27185;52.040;4.490;2022-09-09T11:14:49;21.80;99.50
41447;DHT22;27185;52.040;4.490;2022-09-09T11:17:48;22.10;99.40
41447;DHT22;27185;52.040;4.490;2022-09-09T11:20:34;22.30;97.90
41447;DHT22;27185;52.040;4.490;2022-09-09T11:23:40;22.40;98.80
41447;DHT22;27185;52.040;4.490;2022-09-09T11:26:42;22.60;97.40
41447;DHT22;27185;52.040;4.490;2022-09-09T11:35:59;23.00;95.70
41447;DHT22;27185;52.040;4.490;2022-09-09T11:38:50;22.90;95.60
41447;DHT22;27185;52.040;4.490;2022-09-09T11:41:37;22.70;96.40
41447;DHT22;27185;52.040;4.490;2022-09-09T11:44:29;22.50;96.70
41447;DHT22;27185;52.040;4.490;2022-09-09T11:47:27;22.20;96.40
41447;DHT22;27185;52.040;4.490;2022-09-09T11:53:21;21.80;97.10
41447;DHT22;27185;52.040;4.490;2022-09-09T11:56:12;21.50;97.30
41447;DHT22;27185;52.040;4.490;2022-09-09T11:59:06;21.30;97.70
41447;DHT22;27185;52.040;4.490;2022-09-09T12:02:13;21.10;98.10
41447;DHT22;27185;52.040;4.490;2022-09-09T12:05:07;20.90;98.70
41447;DHT22;27185;52.040;4.490;2022-09-09T12:07:58;20.80;99.10
41447;DHT22;27185;52.040;4.490;2022-09-09T12:10:53;20.60;99.40
41447;DHT22;27185;52.040;4.490;2022-09-09T12:13:39;20.50;99.90
41447;DHT22;27185;52.040;4.490;2022-09-09T12:19:22;20.30;99.90
41447;DHT22;27185;52.040;4.490;2022-09-09T12:25:35;20.20;99.90
41447;DHT22;27185;52.040;4.490;2022-09-09T12:31:34;20.20;99.90
41447;DHT22;27185;52.040;4.490;2022-09-09T12:37:38;20.10;99.90
41447;DHT22;27185;52.040;4.490;2022-09-09T12:40:32;20.10;99.90
41447;DHT22;27185;52.040;4.490;2022-09-09T12:43:22;20.00;99.90
41447;DHT22;27185;52.040;4.490;2022-09-09T12:46:12;20.00;99.90
41447;DHT22;27185;52.040;4.490;2022-09-09T12:48:59;19.90;99.90
41447;DHT22;27185;52.040;4.490;2022-09-09T12:51:45;20.00;99.90
41447;DHT22;27185;52.040;4.490;2022-09-09T12:54:30;20.10;99.90
41447;DHT22;27185;52.040;4.490;2022-09-09T12:57:16;20.10;99.90
41447;DHT22;27185;52.040;4.490;2022-09-09T13:00:11;20.10;99.90
41447;DHT22;27185;52.040;4.490;2022-09-09T13:02:59;20.00;99.90
41447;DHT22;27185;52.040;4.490;2022-09-09T13:05:44;20.10;99.90
41447;DHT22;27185;52.040;4.490;2022-09-09T13:08:32;20.20;99.90
41447;DHT22;27185;52.040;4.490;2022-09-09T13:11:22;20.20;99.90
41447;DHT22;27185;52.040;4.490;2022-09-09T13:14:31;20.10;99.90
41447;DHT22;27185;52.040;4.490;2022-09-09T13:17:21;20.30;99.90
41447;DHT22;27185;52.040;4.490;2022-09-09T13:20:17;20.40;99.90
41447;DHT22;27185;52.040;4.490;2022-09-09T13:23:03;20.50;99.90
41447;DHT22;27185;52.040;4.490;2022-09-09T13:26:00;20.70;99.90
41447;DHT22;27185;52.040;4.490;2022-09-09T13:28:46;20.80;99.50
41447;DHT22;27185;52.040;4.490;2022-09-09T13:31:34;20.80;99.70
41447;DHT22;27185;52.040;4.490;2022-09-09T13:34:31;20.90;99.80
41447;DHT22;27185;52.040;4.490;2022-09-09T13:40:20;20.90;99.80
41447;DHT22;27185;52.040;4.490;2022-09-09T13:43:18;20.70;99.80
41447;DHT22;27185;52.040;4.490;2022-09-09T13:46:32;20.60;99.90
41447;DHT22;27185;52.040;4.490;2022-09-09T13:49:23;20.40;99.90
41447;DHT22;27185;52.040;4.490;2022-09-09T13:52:12;20.20;99.90
41447;DHT22;27185;52.040;4.490;2022-09-09T13:54:58;20.00;99.90
41447;DHT22;27185;52.040;4.490;2022-09-09T14:00:37;19.60;99.90
41447;DHT22;27185;52.040;4.490;2022-09-09T14:03:23;19.50;99.90
41447;DHT22;27185;52.040;4.490;2022-09-09T14:06:10;19.30;99.90
41447;DHT22;27185;52.040;4.490;2022-09-09T14:08:55;19.20;99.90
41447;DHT22;27185;52.040;4.490;2022-09-09T14:11:42;19.10;99.90
41447;DHT22;27185;52.040;4.490;2022-09-09T14:14:28;19.10;99.90
41447;DHT22;27185;52.040;4.490;2022-09-09T14:17:13;19.10;99.90
41447;DHT22;27185;52.040;4.490;2022-09-09T14:20:00;19.10;99.90
41447;DHT22;27185;52.040;4.490;2022-09-09T14:22:45;19.10;99.90
41447;DHT22;27185;52.040;4.490;2022-09-09T14:25:31;19.20;99.90
41447;DHT22;27185;52.040;4.490;2022-09-09T14:28:17;19.30;99.90
41447;DHT22;27185;52.040;4.490;2022-09-09T14:31:03;19.30;99.90
41447;DHT22;27185;52.040;4.490;2022-09-09T14:33:50;19.50;99.90
41447;DHT22;27185;52.040;4.490;2022-09-09T14:36:39;19.60;99.90
41447;DHT22;27185;52.040;4.490;2022-09-09T14:39:25;19.70;99.90
41447;DHT22;27185;52.040;4.490;2022-09-09T14:42:11;19.90;99.90
41447;DHT22;27185;52.040;4.490;2022-09-09T14:44:57;20.20;99.90
41447;DHT22;27185;52.040;4.490;2022-09-09T14:47:42;20.50;99.90
41447;DHT22;27185;52.040;4.490;2022-09-09T14:50:28;20.90;99.90
41447;DHT22;27185;52.040;4.490;2022-09-09T14:53:16;21.20;99.90
41447;DHT22;27185;52.040;4.490;2022-09-09T14:56:07;21.50;99.90
41447;DHT22;27185;52.040;4.490;2022-09-09T14:58:55;21.80;99.90
41447;DHT22;27185;52.040;4.490;2022-09-09T15:01:41;21.80;99.40
41447;DHT22;27185;52.040;4.490;2022-09-09T15:04:26;22.00;99.90
41447;DHT22;27185;52.040;4.490;2022-09-09T15:07:13;22.10;99.20
41447;DHT22;27185;52.040;4.490;2022-09-09T15:09:58;22.20;98.50
41447;DHT22;27185;52.040;4.490;2022-09-09T15:12:44;22.10;97.90
41447;DHT22;27185;52.040;4.490;2022-09-09T15:15:29;22.10;97.80
41447;DHT22;27185;52.040;4.490;2022-09-09T15:18:15;22.10;98.10
41447;DHT22;27185;52.040;4.490;2022-09-09T15:21:01;22.10;98.30
41447;DHT22;27185;52.040;4.490;2022-09-09T15:23:48;22.00;97.90
41447;DHT22;27185;52.040;4.490;2022-09-09T15:26:34;22.00;97.80
41447;DHT22;27185;52.040;4.490;2022-09-09T15:29:24;21.90;97.90
41447;DHT22;27185;52.040;4.490;2022-09-09T15:32:09;21.80;97.80
41447;DHT22;27185;52.040;4.490;2022-09-09T15:34:55;21.70;97.40
41447;DHT22;27185;52.040;4.490;2022-09-09T15:37:40;21.60;97.50
41447;DHT22;27185;52.040;4.490;2022-09-09T15:40:26;21.50;97.60
41447;DHT22;27185;52.040;4.490;2022-09-09T15:43:12;21.40;97.90
41447;DHT22;27185;52.040;4.490;2022-09-09T15:47:03;21.30;98.10
41447;DHT22;27185;52.040;4.490;2022-09-09T15:49:23;21.10;98.10
41447;DHT22;27185;52.040;4.490;2022-09-09T15:52:10;20.90;98.60
41447;DHT22;27185;52.040;4.490;2022-09-09T15:54:56;20.70;98.90
41447;DHT22;27185;52.040;4.490;2022-09-09T15:57:41;20.50;99.10
41447;DHT22;27185;52.040;4.490;2022-09-09T16:00:27;20.40;99.20
41447;DHT22;27185;52.040;4.490;2022-09-09T16:03:13;20.20;99.50
41447;DHT22;27185;52.040;4.490;2022-09-09T16:05:59;20.20;99.90
41447;DHT22;27185;52.040;4.490;2022-09-09T16:08:45;20.10;99.90
41447;DHT22;27185;52.040;4.490;2022-09-09T16:11:34;20.10;99.90
41447;DHT22;27185;52.040;4.490;2022-09-09T16:14:21;20.20;99.90
41447;DHT22;27185;52.040;4.490;2022-09-09T16:17:07;20.20;99.90
41447;DHT22;27185;52.040;4.490;2022-09-09T16:19:52;20.20;99.90
41447;DHT22;27185;52.040;4.490;2022-09-09T16:22:39;20.30;99.90
41447;DHT22;27185;52.040;4.490;2022-09-09T16:25:25;20.30;99.90
41447;DHT22;27185;52.040;4.490;2022-09-09T16:28:11;20.30;99.90
41447;DHT22;27185;52.040;4.490;2022-09-09T16:30:57;20.20;99.90
41447;DHT22;27185;52.040;4.490;2022-09-09T16:33:43;20.20;99.90
41447;DHT22;27185;52.040;4.490;2022-09-09T16:36:31;20.20;99.90
41447;DHT22;27185;52.040;4.490;2022-09-09T16:39:19;20.10;99.90
41447;DHT22;27185;52.040;4.490;2022-09-09T16:42:04;20.10;99.90
41447;DHT22;27185;52.040;4.490;2022-09-09T16:44:50;20.00;99.90
41447;DHT22;27185;52.040;4.490;2022-09-09T16:47:35;20.10;99.90
41447;DHT22;27185;52.040;4.490;2022-09-09T16:50:21;20.10;99.90
41447;DHT22;27185;52.040;4.490;2022-09-09T16:53:07;20.10;99.90
41447;DHT22;27185;52.040;4.490;2022-09-09T16:55:54;20.00;99.90
41447;DHT22;27185;52.040;4.490;2022-09-09T16:58:40;20.00;99.90
41447;DHT22;27185;52.040;4.490;2022-09-09T17:01:33;20.00;99.90
41447;DHT22;27185;52.040;4.490;2022-09-09T17:04:26;19.90;99.90
41447;DHT22;27185;52.040;4.490;2022-09-09T17:07:13;19.80;99.90
41447;DHT22;27185;52.040;4.490;2022-09-09T17:09:58;19.80;99.90
41447;DHT22;27185;52.040;4.490;2022-09-09T17:12:44;19.70;99.90
41447;DHT22;27185;52.040;4.490;2022-09-09T17:15:29;19.60;99.90
41447;DHT22;27185;52.040;4.490;2022-09-09T17:18:15;19.50;99.90
41447;DHT22;27185;52.040;4.490;2022-09-09T17:21:09;19.50;99.90
41447;DHT22;27185;52.040;4.490;2022-09-09T17:23:57;19.30;99.90
41447;DHT22;27185;52.040;4.490;2022-09-09T17:26:42;19.30;99.90
41447;DHT22;27185;52.040;4.490;2022-09-09T17:29:28;19.20;99.90
41447;DHT22;27185;52.040;4.490;2022-09-09T17:32:13;19.20;99.90
41447;DHT22;27185;52.040;4.490;2022-09-09T17:34:59;19.20;99.90
41447;DHT22;27185;52.040;4.490;2022-09-09T17:37:45;19.10;99.90
41447;DHT22;27185;52.040;4.490;2022-09-09T17:40:30;19.10;99.90
41447;DHT22;27185;52.040;4.490;2022-09-09T17:43:16;19.00;99.90
41447;DHT22;27185;52.040;4.490;2022-09-09T17:48:59;19.00;99.90
41447;DHT22;27185;52.040;4.490;2022-09-09T17:51:46;19.00;99.90
41447;DHT22;27185;52.040;4.490;2022-09-09T17:54:31;19.00;99.90
41447;DHT22;27185;52.040;4.490;2022-09-09T17:57:18;18.90;99.90
41447;DHT22;27185;52.040;4.490;2022-09-09T18:00:05;18.90;99.90
41447;DHT22;27185;52.040;4.490;2022-09-09T18:02:51;18.90;99.90
41447;DHT22;27185;52.040;4.490;2022-09-09T18:05:37;18.80;99.90
41447;DHT22;27185;52.040;4.490;2022-09-09T18:08:22;18.80;99.90
41447;DHT22;27185;52.040;4.490;2022-09-09T18:11:08;18.80;99.90
41447;DHT22;27185;52.040;4.490;2022-09-09T18:13:56;18.80;99.90
41447;DHT22;27185;52.040;4.490;2022-09-09T18:16:41;18.70;99.90
41447;DHT22;27185;52.040;4.490;2022-09-09T18:19:29;18.70;99.90
41447;DHT22;27185;52.040;4.490;2022-09-09T18:22:15;18.70;99.90
41447;DHT22;27185;52.040;4.490;2022-09-09T18:25:01;18.70;99.90
41447;DHT22;27185;52.040;4.490;2022-09-09T18:27:46;18.70;99.90
41447;DHT22;27185;52.040;4.490;2022-09-09T18:30:32;18.70;99.90
41447;DHT22;27185;52.040;4.490;2022-09-09T18:33:17;18.70;99.90
41447;DHT22;27185;52.040;4.490;2022-09-09T18:36:12;18.70;99.90
41447;DHT22;27185;52.040;4.490;2022-09-09T18:39:00;18.60;99.90
41447;DHT22;27185;52.040;4.490;2022-09-09T18:41:49;18.60;99.90
41447;DHT22;27185;52.040;4.490;2022-09-09T18:44:37;18.60;99.90
41447;DHT22;27185;52.040;4.490;2022-09-09T18:47:22;18.60;99.90
41447;DHT22;27185;52.040;4.490;2022-09-09T18:50:09;18.60;99.90
41447;DHT22;27185;52.040;4.490;2022-09-09T18:52:55;18.50;99.90
41447;DHT22;27185;52.040;4.490;2022-09-09T18:55:41;18.50;99.90
41447;DHT22;27185;52.040;4.490;2022-09-09T18:58:28;18.50;99.90
41447;DHT22;27185;52.040;4.490;2022-09-09T19:01:14;18.50;99.90
41447;DHT22;27185;52.040;4.490;2022-09-09T19:04:01;18.50;99.90
41447;DHT22;27185;52.040;4.490;2022-09-09T19:06:48;18.50;99.90
41447;DHT22;27185;52.040;4.490;2022-09-09T19:09:34;18.50;99.90
41447;DHT22;27185;52.040;4.490;2022-09-09T19:12:20;18.50;99.90
41447;DHT22;27185;52.040;4.490;2022-09-09T19:15:06;18.50;99.90